createdAt,value
2022-09-26T00:00:27.083Z,21.37
2022-09-26T00:01:31.424Z,21.36
2022-09-26T00:02:36.105Z,21.35
2022-09-26T00:03:40.896Z,21.36
2022-09-26T00:04:45.179Z,21.36
2022-09-26T00:05:49.428Z,21.36
2022-09-26T00:06:53.714Z,21.35
2022-09-26T00:07:57.992Z,21.35
2022-09-26T00:09:03.271Z,21.34
2022-09-26T00:10:07.582Z,21.35
2022-09-26T00:11:11.845Z,21.34
2022-09-26T00:12:16.112Z,21.36
2022-09-26T00:13:20.384Z,21.37
2022-09-26T00:14:24.894Z,21.35
2022-09-26T00:15:29.159Z,21.35
2022-09-26T00:16:33.548Z,21.35
2022-09-26T00:17:38.058Z,21.37
2022-09-26T00:18:42.367Z,21.37
2022-09-26T00:19:46.638Z,21.37
2022-09-26T00:20:50.910Z,21.36
2022-09-26T00:21:55.197Z,21.35
2022-09-26T00:22:59.520Z,21.35
2022-09-26T00:24:03.804Z,21.35
2022-09-26T00:25:08.062Z,21.36
2022-09-26T00:26:12.311Z,21.35
2022-09-26T00:27:16.589Z,21.35
2022-09-26T00:28:20.880Z,21.35
2022-09-26T00:29:25.175Z,21.35
2022-09-26T00:30:29.507Z,21.35
2022-09-26T00:31:34.011Z,21.35
2022-09-26T00:32:38.267Z,21.34
2022-09-26T00:33:42.527Z,21.34
2022-09-26T00:34:47.076Z,21.36
2022-09-26T00:35:51.332Z,21.35
2022-09-26T00:36:55.596Z,21.35
2022-09-26T00:37:59.849Z,21.34
2022-09-26T00:39:04.138Z,21.33
2022-09-26T00:40:08.775Z,21.34
2022-09-26T00:41:13.420Z,21.32
2022-09-26T00:42:17.663Z,21.33
2022-09-26T00:43:21.942Z,21.34
2022-09-26T00:44:26.266Z,21.35
2022-09-26T00:45:30.540Z,21.36
2022-09-26T00:46:34.957Z,21.36
2022-09-26T00:47:39.253Z,21.36
2022-09-26T00:48:43.556Z,21.35
2022-09-26T00:49:47.845Z,21.35
2022-09-26T00:50:52.082Z,21.35
2022-09-26T00:51:56.422Z,21.35
2022-09-26T00:53:00.716Z,21.35
2022-09-26T00:54:04.976Z,21.35
2022-09-26T00:55:09.235Z,21.34
2022-09-26T00:56:13.497Z,21.34
2022-09-26T00:57:17.791Z,21.33
2022-09-26T00:58:22.094Z,21.33
2022-09-26T00:59:26.348Z,21.32
2022-09-26T01:00:32.861Z,21.32
2022-09-26T01:01:37.746Z,21.33
2022-09-26T01:02:42.717Z,21.33
2022-09-26T01:03:47.253Z,21.32
2022-09-26T01:04:51.541Z,21.33
2022-09-26T01:05:55.802Z,21.32
2022-09-26T01:07:00.591Z,21.33
2022-09-26T01:08:04.861Z,21.32
2022-09-26T01:09:09.386Z,21.32
2022-09-26T01:10:13.826Z,21.31
2022-09-26T01:11:18.095Z,21.31
2022-09-26T01:12:22.367Z,21.31
2022-09-26T01:13:26.639Z,21.31
2022-09-26T01:14:30.955Z,21.34
2022-09-26T01:15:35.233Z,21.33
2022-09-26T01:16:39.608Z,21.33
2022-09-26T01:17:44.151Z,21.31
2022-09-26T01:18:48.420Z,21.32
2022-09-26T01:19:52.760Z,21.32
2022-09-26T01:20:57.029Z,21.31
2022-09-26T01:22:01.314Z,21.32
2022-09-26T01:23:05.559Z,21.33
2022-09-26T01:24:09.843Z,21.33
2022-09-26T01:25:14.131Z,21.34
2022-09-26T01:26:18.390Z,21.33
2022-09-26T01:27:22.654Z,21.32
2022-09-26T01:28:26.928Z,21.33
2022-09-26T01:29:31.238Z,21.33
2022-09-26T01:30:35.571Z,21.3
2022-09-26T01:31:39.976Z,21.29
2022-09-26T01:32:44.262Z,21.29
2022-09-26T01:33:48.553Z,21.29
2022-09-26T01:34:52.864Z,21.29
2022-09-26T01:35:57.120Z,21.29
2022-09-26T01:37:01.443Z,21.27
2022-09-26T01:38:05.704Z,21.28
2022-09-26T01:39:11.018Z,21.28
2022-09-26T01:40:15.739Z,21.28
2022-09-26T01:41:20.207Z,21.28
2022-09-26T01:42:24.468Z,21.28
2022-09-26T01:43:28.741Z,21.28
2022-09-26T01:44:33.018Z,21.3
2022-09-26T01:45:37.368Z,21.28
2022-09-26T01:46:41.792Z,21.27
2022-09-26T01:47:46.046Z,21.26
2022-09-26T01:48:50.319Z,21.27
2022-09-26T01:49:54.658Z,21.27
2022-09-26T01:50:58.918Z,21.27
2022-09-26T01:52:03.166Z,21.26
2022-09-26T01:53:07.424Z,21.26
2022-09-26T01:54:11.747Z,21.26
2022-09-26T01:55:16.053Z,21.25
2022-09-26T01:56:20.357Z,21.26
2022-09-26T01:57:24.625Z,21.27
2022-09-26T01:58:28.918Z,21.27
2022-09-26T01:59:33.158Z,21.27
2022-09-26T02:00:37.497Z,21.27
2022-09-26T02:01:41.844Z,21.25
2022-09-26T02:02:46.609Z,21.25
2022-09-26T02:03:51.177Z,21.26
2022-09-26T02:04:55.465Z,21.26
2022-09-26T02:05:59.740Z,21.25
2022-09-26T02:07:04.013Z,21.25
2022-09-26T02:08:08.279Z,21.24
2022-09-26T02:09:12.659Z,21.23
2022-09-26T02:10:17.384Z,21.24
2022-09-26T02:11:21.622Z,21.25
2022-09-26T02:12:25.881Z,21.24
2022-09-26T02:13:30.149Z,21.24
2022-09-26T02:14:34.439Z,21.24
2022-09-26T02:15:38.771Z,21.24
2022-09-26T02:16:43.126Z,21.24
2022-09-26T02:17:47.627Z,21.24
2022-09-26T02:18:51.948Z,21.25
2022-09-26T02:19:56.244Z,21.24
2022-09-26T02:21:00.548Z,21.25
2022-09-26T02:22:04.846Z,21.26
2022-09-26T02:23:09.109Z,21.24
2022-09-26T02:24:13.380Z,21.23
2022-09-26T02:25:17.680Z,21.23
2022-09-26T02:26:21.944Z,21.23
2022-09-26T02:27:26.206Z,21.23
2022-09-26T02:28:30.452Z,21.23
2022-09-26T02:29:34.707Z,21.23
2022-09-26T02:30:38.996Z,21.23
2022-09-26T02:31:43.304Z,21.23
2022-09-26T02:32:48.874Z,21.25
2022-09-26T02:33:53.113Z,21.25
2022-09-26T02:34:57.375Z,21.25
2022-09-26T02:36:01.643Z,21.23
2022-09-26T02:37:05.941Z,21.23
2022-09-26T02:38:10.215Z,21.23
2022-09-26T02:39:14.527Z,21.22
2022-09-26T02:40:19.098Z,21.23
2022-09-26T02:41:23.650Z,21.22
2022-09-26T02:42:27.882Z,21.22
2022-09-26T02:43:32.157Z,21.23
2022-09-26T02:44:36.397Z,21.23
2022-09-26T02:45:40.684Z,21.22
2022-09-26T02:46:45.183Z,21.21
2022-09-26T02:47:49.409Z,21.2
2022-09-26T02:48:53.663Z,21.2
2022-09-26T02:49:57.938Z,21.21
2022-09-26T02:51:02.184Z,21.21
2022-09-26T02:52:06.442Z,21.21
2022-09-26T02:53:10.688Z,21.2
2022-09-26T02:54:14.938Z,21.19
2022-09-26T02:55:19.184Z,21.2
2022-09-26T02:56:23.423Z,21.19
2022-09-26T02:57:27.655Z,21.19
2022-09-26T02:58:31.940Z,21.19
2022-09-26T02:59:36.185Z,21.19
2022-09-26T03:00:40.463Z,21.18
2022-09-26T03:01:45.001Z,21.17
2022-09-26T03:02:49.272Z,21.17
2022-09-26T03:03:53.506Z,21.18
2022-09-26T03:04:57.808Z,21.2
2022-09-26T03:06:02.295Z,21.2
2022-09-26T03:07:06.598Z,21.21
2022-09-26T03:08:10.832Z,21.21
2022-09-26T03:09:15.184Z,21.2
2022-09-26T03:10:19.453Z,21.22
2022-09-26T03:11:23.732Z,21.22
2022-09-26T03:12:28.016Z,21.21
2022-09-26T03:13:32.242Z,21.21
2022-09-26T03:14:36.482Z,21.21
2022-09-26T03:15:40.718Z,21.22
2022-09-26T03:16:45.037Z,21.21
2022-09-26T03:17:49.470Z,21.21
2022-09-26T03:18:53.713Z,21.2
2022-09-26T03:19:57.976Z,21.2
2022-09-26T03:21:02.225Z,21.21
2022-09-26T03:22:06.468Z,21.2
2022-09-26T03:23:10.726Z,21.21
2022-09-26T03:24:14.955Z,21.21
2022-09-26T03:25:19.208Z,21.21
2022-09-26T03:26:23.458Z,21.2
2022-09-26T03:27:27.704Z,21.19
2022-09-26T03:28:36.925Z,21.19
2022-09-26T03:29:41.808Z,21.2
2022-09-26T03:30:46.056Z,21.2
2022-09-26T03:31:50.559Z,21.2
2022-09-26T03:32:55.040Z,21.2
2022-09-26T03:33:59.326Z,21.22
2022-09-26T03:35:03.660Z,21.22
2022-09-26T03:36:07.896Z,21.22
2022-09-26T03:37:12.408Z,21.22
2022-09-26T03:38:16.644Z,21.22
2022-09-26T03:39:20.885Z,21.22
2022-09-26T03:40:25.179Z,21.22
2022-09-26T03:41:29.600Z,21.22
2022-09-26T03:42:33.878Z,21.23
2022-09-26T03:43:38.124Z,21.22
2022-09-26T03:44:42.352Z,21.23
2022-09-26T03:45:46.651Z,21.23
2022-09-26T03:46:51.001Z,21.23
2022-09-26T03:47:55.269Z,21.23
2022-09-26T03:48:59.821Z,21.24
2022-09-26T03:50:04.042Z,21.24
2022-09-26T03:51:08.259Z,21.25
2022-09-26T03:52:12.505Z,21.24
2022-09-26T03:53:16.780Z,21.25
2022-09-26T03:54:21.024Z,21.23
2022-09-26T03:55:25.312Z,21.24
2022-09-26T03:56:29.557Z,21.26
2022-09-26T03:57:33.807Z,21.26
2022-09-26T03:58:38.045Z,21.26
2022-09-26T03:59:42.283Z,21.25
2022-09-26T04:00:46.708Z,21.26
2022-09-26T04:01:51.187Z,21.26
2022-09-26T04:02:55.634Z,21.26
2022-09-26T04:03:59.894Z,21.27
2022-09-26T04:05:04.140Z,21.28
2022-09-26T04:06:08.381Z,21.29
2022-09-26T04:07:12.626Z,21.29
2022-09-26T04:08:16.866Z,21.33
2022-09-26T04:09:21.257Z,21.38
2022-09-26T04:10:26.114Z,21.38
2022-09-26T04:11:30.389Z,21.32
2022-09-26T04:12:34.713Z,21.28
2022-09-26T04:13:54.517Z,21.23
2022-09-26T04:14:58.839Z,21.2
2022-09-26T04:16:03.185Z,21.17
2022-09-26T04:17:07.688Z,21.15
2022-09-26T04:18:11.931Z,21.12
2022-09-26T04:19:16.256Z,21.11
2022-09-26T04:20:20.545Z,21.08
2022-09-26T04:21:24.838Z,21.08
2022-09-26T04:22:29.092Z,21.08
2022-09-26T04:23:33.339Z,21.05
2022-09-26T04:24:37.592Z,21.07
2022-09-26T04:25:41.872Z,21.05
2022-09-26T04:26:46.169Z,21.05
2022-09-26T04:27:50.400Z,21.03
2022-09-26T04:28:54.719Z,21.01
2022-09-26T04:29:59.212Z,21
2022-09-26T04:31:03.510Z,21.01
2022-09-26T04:32:07.971Z,21
2022-09-26T04:33:12.199Z,20.97
2022-09-26T04:34:16.451Z,20.97
2022-09-26T04:35:24.604Z,20.95
2022-09-26T04:36:28.850Z,20.94
2022-09-26T04:37:33.128Z,20.94
2022-09-26T04:38:37.412Z,20.93
2022-09-26T04:39:41.636Z,20.95
2022-09-26T04:40:45.939Z,20.93
2022-09-26T04:41:50.285Z,20.92
2022-09-26T04:42:54.533Z,20.92
2022-09-26T04:43:58.771Z,20.91
2022-09-26T04:45:03.023Z,20.91
2022-09-26T04:46:07.333Z,20.9
2022-09-26T04:47:11.989Z,20.89
2022-09-26T04:48:16.310Z,20.89
2022-09-26T04:49:20.535Z,20.87
2022-09-26T04:50:24.783Z,20.87
2022-09-26T04:51:29.061Z,20.86
2022-09-26T04:52:33.298Z,20.87
2022-09-26T04:53:37.535Z,20.87
2022-09-26T04:54:44.117Z,20.88
2022-09-26T04:55:48.404Z,20.86
2022-09-26T04:56:52.648Z,20.88
2022-09-26T04:57:56.896Z,20.86
2022-09-26T04:59:01.157Z,20.85
2022-09-26T05:00:05.415Z,20.84
2022-09-26T05:01:09.732Z,20.84
2022-09-26T05:02:14.423Z,20.85
2022-09-26T05:03:18.879Z,20.85
2022-09-26T05:04:27.386Z,20.85
2022-09-26T05:05:31.855Z,20.83
2022-09-26T05:06:36.103Z,20.84
2022-09-26T05:07:40.399Z,20.82
2022-09-26T05:08:44.739Z,20.83
2022-09-26T05:09:49.037Z,20.83
2022-09-26T05:10:53.306Z,20.83
2022-09-26T05:11:57.574Z,20.82
2022-09-26T05:13:01.849Z,20.83
2022-09-26T05:14:06.240Z,20.81
2022-09-26T05:15:10.494Z,20.82
2022-09-26T05:16:14.824Z,20.79
2022-09-26T05:17:19.288Z,20.81
2022-09-26T05:18:23.559Z,20.8
2022-09-26T05:19:27.893Z,20.81
2022-09-26T05:20:32.137Z,20.78
2022-09-26T05:21:36.368Z,20.8
2022-09-26T05:22:40.736Z,20.81
2022-09-26T05:23:45.560Z,20.82
2022-09-26T05:24:49.914Z,20.83
2022-09-26T05:25:54.172Z,20.81
2022-09-26T05:26:58.419Z,20.83
2022-09-26T05:28:02.667Z,20.82
2022-09-26T05:29:08.686Z,20.79
2022-09-26T05:30:14.044Z,20.77
2022-09-26T05:31:18.342Z,20.78
2022-09-26T05:32:22.818Z,20.79
2022-09-26T05:33:27.108Z,20.79
2022-09-26T05:34:31.343Z,20.79
2022-09-26T05:35:35.613Z,20.78
2022-09-26T05:36:39.885Z,20.77
2022-09-26T05:37:44.096Z,20.78
2022-09-26T05:38:48.318Z,20.78
2022-09-26T05:39:52.602Z,20.79
2022-09-26T05:40:57.213Z,20.79
2022-09-26T05:42:01.824Z,20.77
2022-09-26T05:43:06.086Z,20.76
2022-09-26T05:44:12.703Z,20.76
2022-09-26T05:45:16.948Z,20.76
2022-09-26T05:46:21.206Z,20.76
2022-09-26T05:47:25.717Z,20.77
2022-09-26T05:48:30.011Z,20.74
2022-09-26T05:49:34.293Z,20.71
2022-09-26T05:50:42.887Z,20.7
2022-09-26T05:51:50.022Z,20.77
2022-09-26T05:52:54.373Z,20.78
2022-09-26T05:53:58.664Z,20.78
2022-09-26T05:55:03.944Z,20.79
2022-09-26T05:56:08.201Z,20.82
2022-09-26T05:57:15.036Z,20.81
2022-09-26T05:58:19.270Z,20.81
2022-09-26T05:59:23.516Z,20.82
2022-09-26T06:00:27.782Z,20.84
2022-09-26T06:01:32.222Z,20.82
2022-09-26T06:02:36.979Z,20.81
2022-09-26T06:03:41.559Z,20.78
2022-09-26T06:04:45.864Z,20.79
2022-09-26T06:05:50.131Z,20.81
2022-09-26T06:06:54.362Z,20.81
2022-09-26T06:07:58.629Z,20.79
2022-09-26T06:09:02.879Z,20.78
2022-09-26T06:10:07.144Z,20.76
2022-09-26T06:11:11.373Z,20.75
2022-09-26T06:12:15.663Z,20.77
2022-09-26T06:13:19.892Z,20.74
2022-09-26T06:14:24.119Z,20.75
2022-09-26T06:15:28.386Z,20.77
2022-09-26T06:16:32.802Z,20.78
2022-09-26T06:17:37.367Z,20.76
2022-09-26T06:18:41.640Z,20.74
2022-09-26T06:19:45.894Z,20.78
2022-09-26T06:20:50.155Z,20.79
2022-09-26T06:21:54.425Z,20.79
2022-09-26T06:22:58.692Z,20.79
2022-09-26T06:24:02.966Z,20.8
2022-09-26T06:25:09.525Z,20.76
2022-09-26T06:26:13.763Z,20.76
2022-09-26T06:27:18.016Z,20.76
2022-09-26T06:28:23.317Z,20.78
2022-09-26T06:29:27.630Z,20.77
2022-09-26T06:30:31.874Z,20.72
2022-09-26T06:31:36.190Z,20.69
2022-09-26T06:32:40.639Z,20.71
2022-09-26T06:33:44.880Z,20.75
2022-09-26T06:34:51.444Z,20.76
2022-09-26T06:35:55.790Z,20.75
2022-09-26T06:37:00.061Z,20.75
2022-09-26T06:38:04.324Z,20.74
2022-09-26T06:39:08.562Z,20.74
2022-09-26T06:40:12.992Z,20.73
2022-09-26T06:41:17.477Z,20.75
2022-09-26T06:42:21.708Z,20.74
2022-09-26T06:43:27.978Z,20.73
2022-09-26T06:44:32.298Z,20.74
2022-09-26T06:45:36.704Z,20.73
2022-09-26T06:46:41.034Z,20.74
2022-09-26T06:47:45.619Z,20.74
2022-09-26T06:48:49.879Z,20.74
2022-09-26T06:49:54.139Z,20.73
2022-09-26T06:51:00.871Z,20.72
2022-09-26T06:52:05.092Z,20.7
2022-09-26T06:53:09.406Z,20.71
2022-09-26T06:54:13.708Z,20.69
2022-09-26T06:55:17.960Z,20.69
2022-09-26T06:56:22.182Z,20.67
2022-09-26T06:57:26.432Z,20.66
2022-09-26T06:58:30.754Z,20.62
2022-09-26T06:59:34.997Z,20.61
2022-09-26T07:00:39.391Z,20.64
2022-09-26T07:01:44.172Z,20.65
2022-09-26T07:02:49.044Z,20.63
2022-09-26T07:03:54.318Z,20.63
2022-09-26T07:04:58.903Z,20.62
2022-09-26T07:06:03.148Z,20.65
2022-09-26T07:07:07.378Z,20.63
2022-09-26T07:08:11.612Z,20.62
2022-09-26T07:09:16.360Z,20.63
2022-09-26T07:10:22.028Z,20.61
2022-09-26T07:13:18.632Z,20.6
2022-09-26T07:14:22.987Z,20.59
2022-09-26T07:15:27.201Z,20.58
2022-09-26T07:16:31.497Z,20.6
2022-09-26T07:17:35.914Z,20.6
2022-09-26T07:18:40.179Z,20.59
2022-09-26T07:19:44.478Z,20.61
2022-09-26T07:20:51.203Z,20.61
2022-09-26T07:22:00.169Z,20.6
2022-09-26T07:23:04.420Z,20.59
2022-09-26T07:24:08.678Z,20.6
2022-09-26T07:25:12.992Z,20.59
2022-09-26T07:26:17.270Z,20.56
2022-09-26T07:27:21.876Z,20.56
2022-09-26T07:28:26.124Z,20.57
2022-09-26T07:29:30.348Z,20.57
2022-09-26T07:30:34.594Z,20.57
2022-09-26T07:31:39.021Z,20.6
2022-09-26T07:32:43.586Z,20.59
2022-09-26T07:33:47.855Z,20.6
2022-09-26T07:34:52.094Z,20.6
2022-09-26T07:35:56.332Z,20.6
2022-09-26T07:37:08.075Z,20.59
2022-09-26T07:38:12.298Z,20.59
2022-09-26T07:39:16.763Z,20.61
2022-09-26T07:40:21.132Z,20.61
2022-09-26T07:41:25.587Z,20.59
2022-09-26T07:42:29.848Z,20.6
2022-09-26T07:44:19.146Z,20.57
2022-09-26T07:46:31.093Z,20.6
2022-09-26T07:47:35.765Z,20.6
2022-09-26T07:48:40.000Z,20.57
2022-09-26T07:49:44.284Z,20.58
2022-09-26T07:50:48.545Z,20.55
2022-09-26T07:51:52.754Z,20.6
2022-09-26T07:52:57.336Z,20.59
2022-09-26T07:54:01.575Z,20.58
2022-09-26T07:55:05.848Z,20.56
2022-09-26T07:56:10.117Z,20.59
2022-09-26T07:57:14.355Z,20.57
2022-09-26T07:58:18.651Z,20.56
2022-09-26T07:59:22.898Z,20.59
2022-09-26T08:00:27.168Z,20.59
2022-09-26T08:01:31.438Z,20.6
2022-09-26T08:02:36.143Z,20.59
2022-09-26T08:03:40.785Z,20.58
2022-09-26T08:04:45.033Z,20.57
2022-09-26T08:05:49.308Z,20.59
2022-09-26T08:06:53.538Z,20.59
2022-09-26T08:07:57.816Z,20.59
2022-09-26T08:09:02.082Z,20.6
2022-09-26T08:10:06.393Z,20.57
2022-09-26T08:11:10.642Z,20.57
2022-09-26T08:12:14.913Z,20.58
2022-09-26T08:13:19.180Z,20.58
2022-09-26T08:14:23.456Z,20.55
2022-09-26T08:15:27.722Z,20.56
2022-09-26T08:16:31.989Z,20.56
2022-09-26T08:17:36.518Z,20.55
2022-09-26T08:18:40.750Z,20.55
2022-09-26T08:19:44.991Z,20.57
2022-09-26T08:20:49.234Z,20.57
2022-09-26T08:21:53.493Z,20.58
2022-09-26T08:22:57.770Z,20.56
2022-09-26T08:24:02.035Z,20.54
2022-09-26T08:25:06.295Z,20.55
2022-09-26T08:26:10.566Z,20.52
2022-09-26T08:27:14.809Z,20.54
2022-09-26T08:28:19.077Z,20.56
2022-09-26T08:29:23.364Z,20.54
2022-09-26T08:30:27.664Z,20.53
2022-09-26T08:31:32.016Z,20.54
2022-09-26T08:32:36.684Z,20.52
2022-09-26T08:33:40.938Z,20.54
2022-09-26T08:34:45.202Z,20.53
2022-09-26T08:35:49.441Z,20.56
2022-09-26T08:36:53.712Z,20.55
2022-09-26T08:38:00.226Z,20.55
2022-09-26T08:39:04.472Z,20.55
2022-09-26T08:40:09.058Z,20.55
2022-09-26T08:41:13.435Z,20.55
2022-09-26T08:42:17.709Z,20.55
2022-09-26T08:43:21.977Z,20.56
2022-09-26T08:44:26.257Z,20.55
2022-09-26T08:45:30.531Z,20.55
2022-09-26T08:46:34.793Z,20.53
2022-09-26T08:47:39.385Z,20.53
2022-09-26T08:48:43.678Z,20.54
2022-09-26T08:49:47.906Z,20.53
2022-09-26T08:50:52.167Z,20.49
2022-09-26T08:51:56.445Z,20.52
2022-09-26T08:53:00.757Z,20.53
2022-09-26T08:54:04.993Z,20.56
2022-09-26T08:55:09.493Z,20.55
2022-09-26T08:56:13.754Z,20.54
2022-09-26T08:57:18.024Z,20.53
2022-09-26T08:58:25.311Z,20.53
2022-09-26T08:59:32.423Z,20.52
2022-09-26T09:00:36.674Z,20.52
2022-09-26T09:01:41.118Z,20.52
2022-09-26T09:02:45.941Z,20.51
2022-09-26T09:03:51.296Z,20.52
2022-09-26T09:04:55.559Z,20.52
2022-09-26T09:05:59.804Z,20.51
2022-09-26T09:07:06.743Z,20.53
2022-09-26T09:08:11.012Z,20.53
2022-09-26T09:09:15.238Z,20.52
2022-09-26T09:10:19.616Z,20.53
2022-09-26T09:11:23.877Z,20.56
2022-09-26T09:12:32.078Z,20.52
2022-09-26T09:13:36.515Z,20.54
2022-09-26T09:14:40.784Z,20.52
2022-09-26T09:15:45.139Z,20.54
2022-09-26T09:16:49.582Z,20.52
2022-09-26T09:17:53.843Z,20.54
2022-09-26T09:18:58.096Z,20.55
2022-09-26T09:20:02.370Z,20.56
2022-09-26T09:21:06.640Z,20.56
2022-09-26T09:22:10.929Z,20.56
2022-09-26T09:23:15.219Z,20.56
2022-09-26T09:24:19.462Z,20.54
2022-09-26T09:25:23.712Z,20.55
2022-09-26T09:29:02.225Z,20.56
2022-09-26T09:30:15.649Z,20.57
2022-09-26T09:31:21.239Z,20.58
2022-09-26T09:32:25.729Z,20.56
2022-09-26T09:33:29.974Z,20.55
2022-09-26T09:34:34.305Z,20.56
2022-09-26T09:35:38.550Z,20.56
2022-09-26T09:36:42.809Z,20.56
2022-09-26T09:37:47.085Z,20.56
2022-09-26T09:38:51.341Z,20.56
2022-09-26T09:39:55.549Z,20.55
2022-09-26T09:40:59.822Z,20.56
2022-09-26T09:42:04.365Z,20.53
2022-09-26T09:43:08.624Z,20.52
2022-09-26T09:44:12.901Z,20.49
2022-09-26T09:45:17.596Z,20.52
2022-09-26T09:46:21.888Z,20.52
2022-09-26T09:47:26.467Z,20.54
2022-09-26T09:48:30.696Z,20.53
2022-09-26T09:49:34.969Z,20.53
2022-09-26T09:50:39.207Z,20.55
2022-09-26T09:51:43.457Z,20.52
2022-09-26T09:52:47.700Z,20.53
2022-09-26T09:53:51.927Z,20.52
2022-09-26T09:54:56.249Z,20.53
2022-09-26T09:56:00.508Z,20.52
2022-09-26T09:57:04.768Z,20.51
2022-09-26T09:58:09.007Z,20.49
2022-09-26T09:59:13.234Z,20.5
2022-09-26T10:00:17.468Z,20.52
2022-09-26T10:01:23.992Z,20.48
2022-09-26T10:02:28.337Z,20.47
2022-09-26T10:03:32.806Z,20.47
2022-09-26T10:04:37.042Z,20.46
2022-09-26T10:05:41.367Z,20.46
2022-09-26T10:06:47.266Z,20.44
2022-09-26T10:07:51.681Z,20.47
2022-09-26T10:08:56.012Z,20.44
2022-09-26T10:10:37.650Z,20.43
2022-09-26T10:11:43.025Z,20.45
2022-09-26T10:12:51.454Z,20.46
2022-09-26T10:13:55.679Z,20.49
2022-09-26T10:15:00.095Z,20.49
2022-09-26T10:16:04.390Z,20.51
2022-09-26T10:17:08.978Z,20.48
2022-09-26T10:18:28.749Z,20.46
2022-09-26T10:19:33.001Z,20.46
2022-09-26T10:20:37.331Z,20.48
2022-09-26T10:21:41.597Z,20.47
2022-09-26T10:22:45.833Z,20.48
2022-09-26T10:23:50.189Z,20.47
2022-09-26T10:24:54.446Z,20.49
2022-09-26T10:25:58.698Z,20.49
2022-09-26T10:27:02.950Z,20.51
2022-09-26T10:28:07.207Z,20.49
2022-09-26T10:29:11.433Z,20.48
2022-09-26T10:30:15.732Z,20.48
2022-09-26T10:31:20.051Z,20.51
2022-09-26T10:32:24.604Z,20.48
2022-09-26T10:33:28.865Z,20.5
2022-09-26T10:34:33.085Z,20.49
2022-09-26T10:35:37.321Z,20.52
2022-09-26T10:36:41.770Z,20.52
2022-09-26T10:37:46.059Z,20.53
2022-09-26T10:38:50.281Z,20.51
2022-09-26T10:39:54.572Z,20.52
2022-09-26T10:40:58.818Z,20.52
2022-09-26T10:42:03.327Z,20.52
2022-09-26T10:43:07.589Z,20.48
2022-09-26T10:44:11.823Z,20.49
2022-09-26T10:45:16.391Z,20.52
2022-09-26T10:46:20.698Z,20.54
2022-09-26T10:47:25.202Z,20.56
2022-09-26T10:48:29.460Z,20.52
2022-09-26T10:49:33.769Z,20.54
2022-09-26T10:50:38.006Z,20.54
2022-09-26T10:51:42.242Z,20.51
2022-09-26T10:52:46.526Z,20.53
2022-09-26T10:53:50.774Z,20.56
2022-09-26T10:54:55.066Z,20.55
2022-09-26T10:55:59.324Z,20.57
2022-09-26T10:57:03.545Z,20.56
2022-09-26T10:58:11.495Z,20.55
2022-09-26T10:59:18.494Z,20.53
2022-09-26T11:00:22.793Z,20.55
2022-09-26T11:01:27.041Z,20.53
2022-09-26T11:02:31.541Z,20.52
2022-09-26T11:03:38.306Z,20.51
2022-09-26T11:04:42.858Z,20.51
2022-09-26T11:05:47.098Z,20.54
2022-09-26T11:06:51.375Z,20.56
2022-09-26T11:07:55.614Z,20.55
2022-09-26T11:08:59.874Z,20.55
2022-09-26T11:10:04.113Z,20.57
2022-09-26T11:11:08.384Z,20.54
2022-09-26T11:12:12.627Z,20.55
2022-09-26T11:13:16.886Z,20.54
2022-09-26T11:14:23.835Z,20.5
2022-09-26T11:15:31.569Z,20.52
2022-09-26T11:16:37.316Z,20.53
2022-09-26T11:17:41.988Z,20.52
2022-09-26T11:18:46.249Z,20.54
2022-09-26T11:19:54.612Z,20.54
2022-09-26T11:20:59.173Z,20.54
2022-09-26T11:22:07.496Z,20.54
2022-09-26T11:23:12.510Z,20.55
2022-09-26T11:24:16.760Z,20.54
2022-09-26T11:25:21.213Z,20.52
2022-09-26T11:26:25.449Z,20.5
2022-09-26T11:27:29.687Z,20.47
2022-09-26T11:28:33.962Z,20.47
2022-09-26T11:29:38.215Z,20.49
2022-09-26T11:30:42.459Z,20.51
2022-09-26T11:31:47.111Z,20.49
2022-09-26T11:32:51.351Z,20.48
2022-09-26T11:33:55.591Z,20.48
2022-09-26T11:34:59.867Z,20.51
2022-09-26T11:36:04.114Z,20.47
2022-09-26T11:37:08.362Z,20.49
2022-09-26T11:38:12.646Z,20.5
2022-09-26T11:39:16.879Z,20.5
2022-09-26T11:40:21.171Z,20.48
2022-09-26T11:41:25.678Z,20.51
2022-09-26T11:42:29.926Z,20.49
2022-09-26T11:43:34.190Z,20.48
2022-09-26T11:44:38.467Z,20.46
2022-09-26T11:45:46.680Z,20.47
2022-09-26T11:46:51.677Z,20.46
2022-09-26T11:47:56.213Z,20.44
2022-09-26T11:49:00.469Z,20.44
2022-09-26T11:50:04.704Z,20.45
2022-09-26T11:51:09.018Z,20.44
2022-09-26T11:52:13.278Z,20.44
2022-09-26T11:53:17.525Z,20.45
2022-09-26T11:54:21.810Z,20.44
2022-09-26T11:55:26.059Z,20.42
2022-09-26T11:56:30.304Z,20.41
2022-09-26T11:57:34.560Z,20.42
2022-09-26T11:58:38.827Z,20.42
2022-09-26T11:59:43.069Z,20.42
2022-09-26T12:00:47.314Z,20.44
2022-09-26T12:01:51.726Z,20.44
2022-09-26T12:02:56.146Z,20.42
2022-09-26T12:04:01.068Z,20.41
2022-09-26T12:05:05.918Z,20.41
2022-09-26T12:06:10.337Z,20.42
2022-09-26T12:07:14.596Z,20.39
2022-09-26T12:08:18.877Z,20.39
2022-09-26T12:09:23.164Z,20.4
2022-09-26T12:10:27.503Z,20.36
2022-09-26T12:11:31.759Z,20.36
2022-09-26T12:12:40.363Z,20.38
2022-09-26T12:13:44.793Z,20.4
2022-09-26T12:14:49.047Z,20.4
2022-09-26T12:15:53.336Z,20.38
2022-09-26T12:17:00.614Z,20.39
2022-09-26T12:18:04.864Z,20.41
2022-09-26T12:19:12.840Z,20.4
2022-09-26T12:20:20.164Z,20.4
2022-09-26T12:21:24.430Z,20.38
2022-09-26T12:22:28.668Z,20.4
2022-09-26T12:23:32.891Z,20.4
2022-09-26T12:24:37.162Z,20.39
2022-09-26T12:25:41.406Z,20.37
2022-09-26T12:26:45.720Z,20.38
2022-09-26T12:27:49.995Z,20.38
2022-09-26T12:28:54.232Z,20.38
2022-09-26T12:29:58.472Z,20.36
2022-09-26T12:31:02.898Z,20.36
2022-09-26T12:32:07.657Z,20.34
2022-09-26T12:33:12.031Z,20.34
2022-09-26T12:34:16.285Z,20.32
2022-09-26T12:35:20.601Z,20.33
2022-09-26T12:36:24.864Z,20.35
2022-09-26T12:37:29.151Z,20.34
2022-09-26T12:38:33.397Z,20.34
2022-09-26T12:39:37.666Z,20.32
2022-09-26T12:40:41.979Z,20.36
2022-09-26T12:41:46.557Z,20.34
2022-09-26T12:42:50.805Z,20.33
2022-09-26T12:43:55.146Z,20.31
2022-09-26T12:44:59.417Z,20.33
2022-09-26T12:46:03.718Z,20.33
2022-09-26T12:47:08.155Z,20.34
2022-09-26T12:48:12.411Z,20.34
2022-09-26T12:49:16.847Z,20.32
2022-09-26T12:50:21.187Z,20.34
2022-09-26T12:51:25.482Z,20.3
2022-09-26T12:52:29.738Z,20.27
2022-09-26T12:53:34.051Z,20.28
2022-09-26T12:54:38.354Z,20.29
2022-09-26T12:55:42.621Z,20.3
2022-09-26T12:56:46.858Z,20.28
2022-09-26T12:57:51.104Z,20.31
2022-09-26T12:58:55.366Z,20.29
2022-09-26T12:59:59.680Z,20.28
2022-09-26T13:01:04.003Z,20.26
2022-09-26T13:02:08.267Z,20.29
2022-09-26T13:03:12.864Z,20.32
2022-09-26T13:04:17.412Z,20.32
2022-09-26T13:05:21.672Z,20.32
2022-09-26T13:06:25.902Z,20.33
2022-09-26T13:07:30.186Z,20.31
2022-09-26T13:08:34.438Z,20.3
2022-09-26T13:09:38.673Z,20.26
2022-09-26T13:10:42.971Z,20.27
2022-09-26T13:11:47.226Z,20.31
2022-09-26T13:12:51.462Z,20.3
2022-09-26T13:13:55.694Z,20.29
2022-09-26T13:14:59.958Z,20.33
2022-09-26T13:16:04.294Z,20.33
2022-09-26T13:17:08.783Z,20.34
2022-09-26T13:18:13.059Z,20.38
2022-09-26T13:19:17.298Z,20.35
2022-09-26T13:20:22.544Z,20.36
2022-09-26T13:21:26.801Z,20.36
2022-09-26T13:22:31.097Z,20.36
2022-09-26T13:23:35.328Z,20.37
2022-09-26T13:24:39.656Z,20.38
2022-09-26T13:25:47.301Z,20.34
2022-09-26T13:26:53.625Z,20.34
2022-09-26T13:27:57.877Z,20.34
2022-09-26T13:29:20.405Z,20.34
2022-09-26T13:30:25.777Z,20.34
2022-09-26T13:31:32.524Z,20.36
2022-09-26T13:32:37.313Z,20.37
2022-09-26T13:33:41.565Z,20.39
2022-09-26T13:34:45.834Z,20.4
2022-09-26T13:35:50.268Z,20.41
2022-09-26T13:36:54.555Z,20.44
2022-09-26T13:38:01.363Z,20.46
2022-09-26T13:39:11.385Z,20.46
2022-09-26T13:40:15.763Z,20.46
2022-09-26T13:41:20.203Z,20.48
2022-09-26T13:42:24.463Z,20.49
2022-09-26T13:43:29.747Z,20.51
2022-09-26T13:44:34.027Z,20.51
2022-09-26T13:45:38.292Z,20.53
2022-09-26T13:46:42.904Z,20.54
2022-09-26T13:47:47.389Z,20.54
2022-09-26T13:48:51.615Z,20.57
2022-09-26T13:49:55.881Z,20.58
2022-09-26T13:51:00.096Z,20.58
2022-09-26T13:52:04.339Z,20.59
2022-09-26T13:53:08.562Z,20.61
2022-09-26T13:54:12.917Z,20.61
2022-09-26T13:55:17.448Z,20.64
2022-09-26T13:56:24.857Z,20.67
2022-09-26T13:57:29.067Z,20.66
2022-09-26T13:58:33.372Z,20.66
2022-09-26T13:59:37.615Z,20.67
2022-09-26T14:00:41.923Z,20.68